sensor_id;sensor_type;location;lat;lon;timestamp;temperature;humidity
64670;DHT22;51080;51.690;5.174;2023-02-15T00:05:15;2.80;69.90
64670;DHT22;51080;51.690;5.174;2023-02-15T00:11:09;2.70;70.10
64670;DHT22;51080;51.690;5.174;2023-02-15T00:16:55;2.70;70.30
64670;DHT22;51080;51.690;5.174;2023-02-15T00:22:39;2.70;70.40
64670;DHT22;51080;51.690;5.174;2023-02-15T00:28:23;2.60;70.30
64670;DHT22;51080;51.690;5.174;2023-02-15T00:34:15;2.50;70.50
64670;DHT22;51080;51.690;5.174;2023-02-15T00:39:59;2.40;70.60
64670;DHT22;51080;51.690;5.174;2023-02-15T00:45:45;2.40;70.60
64670;DHT22;51080;51.690;5.174;2023-02-15T00:51:30;2.30;70.50
64670;DHT22;51080;51.690;5.174;2023-02-15T00:57:15;2.30;70.60
64670;DHT22;51080;51.690;5.174;2023-02-15T01:03:00;2.30;70.60
64670;DHT22;51080;51.690;5.174;2023-02-15T01:08:46;2.20;70.70
64670;DHT22;51080;51.690;5.174;2023-02-15T01:14:30;2.20;70.70
64670;DHT22;51080;51.690;5.174;2023-02-15T01:20:45;2.10;70.70
64670;DHT22;51080;51.690;5.174;2023-02-15T01:26:30;2.10;70.60
64670;DHT22;51080;51.690;5.174;2023-02-15T01:32:15;2.00;70.70
64670;DHT22;51080;51.690;5.174;2023-02-15T01:38:29;2.00;70.70
64670;DHT22;51080;51.690;5.174;2023-02-15T01:50:43;2.00;71.10
64670;DHT22;51080;51.690;5.174;2023-02-15T01:56:31;2.00;71.40
64670;DHT22;51080;51.690;5.174;2023-02-15T02:02:18;1.90;71.20
64670;DHT22;51080;51.690;5.174;2023-02-15T02:08:02;1.90;71.20
64670;DHT22;51080;51.690;5.174;2023-02-15T02:13:48;1.80;71.50
64670;DHT22;51080;51.690;5.174;2023-02-15T02:19:58;1.80;71.60
64670;DHT22;51080;51.690;5.174;2023-02-15T02:32:17;1.80;71.60
64670;DHT22;51080;51.690;5.174;2023-02-15T02:38:24;1.80;71.60
64670;DHT22;51080;51.690;5.174;2023-02-15T02:44:28;1.70;71.60
64670;DHT22;51080;51.690;5.174;2023-02-15T02:50:16;1.70;71.60
64670;DHT22;51080;51.690;5.174;2023-02-15T03:02:06;1.60;71.60
64670;DHT22;51080;51.690;5.174;2023-02-15T03:07:53;1.50;71.80
64670;DHT22;51080;51.690;5.174;2023-02-15T03:13:38;1.50;72.00
64670;DHT22;51080;51.690;5.174;2023-02-15T03:19:26;1.50;72.00
64670;DHT22;51080;51.690;5.174;2023-02-15T03:25:21;1.50;72.10
64670;DHT22;51080;51.690;5.174;2023-02-15T03:31:08;1.40;72.10
64670;DHT22;51080;51.690;5.174;2023-02-15T03:37:10;1.40;72.20
64670;DHT22;51080;51.690;5.174;2023-02-15T03:49:08;1.30;72.20
64670;DHT22;51080;51.690;5.174;2023-02-15T03:54:55;1.30;72.10
64670;DHT22;51080;51.690;5.174;2023-02-15T04:00:46;1.30;72.10
64670;DHT22;51080;51.690;5.174;2023-02-15T04:06:33;1.20;72.10
64670;DHT22;51080;51.690;5.174;2023-02-15T04:12:18;1.20;72.20
64670;DHT22;51080;51.690;5.174;2023-02-15T04:18:03;1.20;72.20
64670;DHT22;51080;51.690;5.174;2023-02-15T04:24:18;1.10;72.30
64670;DHT22;51080;51.690;5.174;2023-02-15T04:30:04;1.10;72.10
64670;DHT22;51080;51.690;5.174;2023-02-15T04:35:47;1.10;72.20
64670;DHT22;51080;51.690;5.174;2023-02-15T04:41:32;1.00;72.30
64670;DHT22;51080;51.690;5.174;2023-02-15T04:47:17;1.00;72.40
64670;DHT22;51080;51.690;5.174;2023-02-15T04:53:01;1.00;72.50
64670;DHT22;51080;51.690;5.174;2023-02-15T04:58:45;1.00;72.50
64670;DHT22;51080;51.690;5.174;2023-02-15T05:04:30;0.90;72.50
64670;DHT22;51080;51.690;5.174;2023-02-15T05:10:15;0.90;72.50
64670;DHT22;51080;51.690;5.174;2023-02-15T05:16:00;0.90;72.50
64670;DHT22;51080;51.690;5.174;2023-02-15T05:21:44;0.80;72.60
64670;DHT22;51080;51.690;5.174;2023-02-15T05:27:58;0.80;72.60
64670;DHT22;51080;51.690;5.174;2023-02-15T05:33:42;0.80;72.50
64670;DHT22;51080;51.690;5.174;2023-02-15T05:39:27;0.70;72.70
64670;DHT22;51080;51.690;5.174;2023-02-15T05:45:11;0.70;72.70
64670;DHT22;51080;51.690;5.174;2023-02-15T05:51:26;0.70;72.90
64670;DHT22;51080;51.690;5.174;2023-02-15T05:57:12;0.70;72.80
64670;DHT22;51080;51.690;5.174;2023-02-15T06:02:57;0.70;72.90
64670;DHT22;51080;51.690;5.174;2023-02-15T06:08:42;0.70;72.90
64670;DHT22;51080;51.690;5.174;2023-02-15T06:14:27;0.60;72.90
64670;DHT22;51080;51.690;5.174;2023-02-15T06:20:15;0.60;73.10
64670;DHT22;51080;51.690;5.174;2023-02-15T06:25:59;0.60;73.20
64670;DHT22;51080;51.690;5.174;2023-02-15T06:31:44;0.60;73.20
64670;DHT22;51080;51.690;5.174;2023-02-15T06:37:29;0.50;73.30
64670;DHT22;51080;51.690;5.174;2023-02-15T06:43:14;0.50;73.50
64670;DHT22;51080;51.690;5.174;2023-02-15T06:49:29;0.60;73.80
64670;DHT22;51080;51.690;5.174;2023-02-15T06:55:44;0.70;73.80
64670;DHT22;51080;51.690;5.174;2023-02-15T07:01:28;0.70;73.60
64670;DHT22;51080;51.690;5.174;2023-02-15T07:07:13;0.80;74.10
64670;DHT22;51080;51.690;5.174;2023-02-15T07:12:57;0.70;74.00
64670;DHT22;51080;51.690;5.174;2023-02-15T07:18:42;0.70;73.90
64670;DHT22;51080;51.690;5.174;2023-02-15T07:24:27;0.70;73.90
64670;DHT22;51080;51.690;5.174;2023-02-15T07:30:14;0.70;73.90
64670;DHT22;51080;51.690;5.174;2023-02-15T07:36:00;0.70;74.00
64670;DHT22;51080;51.690;5.174;2023-02-15T07:41:45;0.80;74.10
64670;DHT22;51080;51.690;5.174;2023-02-15T07:47:30;0.80;74.00
64670;DHT22;51080;51.690;5.174;2023-02-15T07:53:14;0.90;74.00
64670;DHT22;51080;51.690;5.174;2023-02-15T07:58:59;1.00;74.10
64670;DHT22;51080;51.690;5.174;2023-02-15T08:04:44;1.10;74.60
64670;DHT22;51080;51.690;5.174;2023-02-15T08:16:54;1.50;75.00
64670;DHT22;51080;51.690;5.174;2023-02-15T08:22:40;1.70;75.00
64670;DHT22;51080;51.690;5.174;2023-02-15T08:28:25;1.90;74.90
64670;DHT22;51080;51.690;5.174;2023-02-15T08:34:10;2.10;75.10
64670;DHT22;51080;51.690;5.174;2023-02-15T08:39:54;2.30;75.30
64670;DHT22;51080;51.690;5.174;2023-02-15T08:45:37;2.50;75.50
64670;DHT22;51080;51.690;5.174;2023-02-15T08:51:24;2.70;75.30
64670;DHT22;51080;51.690;5.174;2023-02-15T08:57:09;2.90;75.30
64670;DHT22;51080;51.690;5.174;2023-02-15T09:02:52;3.10;75.80
64670;DHT22;51080;51.690;5.174;2023-02-15T09:08:37;3.20;75.90
64670;DHT22;51080;51.690;5.174;2023-02-15T09:14:22;3.40;75.70
64670;DHT22;51080;51.690;5.174;2023-02-15T09:20:08;3.50;75.50
64670;DHT22;51080;51.690;5.174;2023-02-15T09:25:52;3.70;75.80
64670;DHT22;51080;51.690;5.174;2023-02-15T09:31:39;3.80;75.40
64670;DHT22;51080;51.690;5.174;2023-02-15T09:37:23;4.10;75.20
64670;DHT22;51080;51.690;5.174;2023-02-15T09:43:24;4.30;75.10
64670;DHT22;51080;51.690;5.174;2023-02-15T09:49:20;4.60;74.80
64670;DHT22;51080;51.690;5.174;2023-02-15T10:13:56;6.00;73.90
64670;DHT22;51080;51.690;5.174;2023-02-15T10:32:20;7.00;72.00
64670;DHT22;51080;51.690;5.174;2023-02-15T10:38:23;7.30;71.50
64670;DHT22;51080;51.690;5.174;2023-02-15T10:44:55;7.70;71.00
64670;DHT22;51080;51.690;5.174;2023-02-15T10:51:20;8.10;70.80
64670;DHT22;51080;51.690;5.174;2023-02-15T10:57:29;8.50;69.30
64670;DHT22;51080;51.690;5.174;2023-02-15T11:09:12;9.40;66.90
64670;DHT22;51080;51.690;5.174;2023-02-15T11:15:02;9.70;66.00
64670;DHT22;51080;51.690;5.174;2023-02-15T11:21:02;10.00;64.90
64670;DHT22;51080;51.690;5.174;2023-02-15T11:27:03;10.20;65.10
64670;DHT22;51080;51.690;5.174;2023-02-15T11:32:51;10.50;64.50
64670;DHT22;51080;51.690;5.174;2023-02-15T11:38:36;10.80;62.60
64670;DHT22;51080;51.690;5.174;2023-02-15T11:44:28;11.10;62.40
64670;DHT22;51080;51.690;5.174;2023-02-15T11:50:45;11.50;62.10
64670;DHT22;51080;51.690;5.174;2023-02-15T11:57:19;11.90;60.70
64670;DHT22;51080;51.690;5.174;2023-02-15T12:03:24;12.10;59.60
64670;DHT22;51080;51.690;5.174;2023-02-15T12:15:29;13.00;57.60
64670;DHT22;51080;51.690;5.174;2023-02-15T12:21:23;13.40;57.40
64670;DHT22;51080;51.690;5.174;2023-02-15T12:27:14;13.70;57.10
64670;DHT22;51080;51.690;5.174;2023-02-15T12:33:26;13.60;54.70
64670;DHT22;51080;51.690;5.174;2023-02-15T12:39:17;13.80;55.50
64670;DHT22;51080;51.690;5.174;2023-02-15T12:45:15;13.80;53.10
64670;DHT22;51080;51.690;5.174;2023-02-15T12:51:07;13.60;56.10
64670;DHT22;51080;51.690;5.174;2023-02-15T12:56:48;13.70;56.80
64670;DHT22;51080;51.690;5.174;2023-02-15T13:03:03;14.00;55.60
64670;DHT22;51080;51.690;5.174;2023-02-15T13:08:53;14.10;56.30
64670;DHT22;51080;51.690;5.174;2023-02-15T13:14:44;14.30;55.90
64670;DHT22;51080;51.690;5.174;2023-02-15T13:20:28;14.70;53.60
64670;DHT22;51080;51.690;5.174;2023-02-15T13:26:18;14.90;52.30
64670;DHT22;51080;51.690;5.174;2023-02-15T13:32:11;14.90;52.70
64670;DHT22;51080;51.690;5.174;2023-02-15T13:51:36;14.70;53.80
64670;DHT22;51080;51.690;5.174;2023-02-15T14:03:42;15.00;51.40
64670;DHT22;51080;51.690;5.174;2023-02-15T14:22:00;15.40;51.30
64670;DHT22;51080;51.690;5.174;2023-02-15T14:33:53;14.80;51.00
64670;DHT22;51080;51.690;5.174;2023-02-15T14:45:55;14.30;53.70
64670;DHT22;51080;51.690;5.174;2023-02-15T14:57:35;13.80;53.70
64670;DHT22;51080;51.690;5.174;2023-02-15T15:03:23;13.60;54.60
64670;DHT22;51080;51.690;5.174;2023-02-15T15:09:14;13.50;55.90
64670;DHT22;51080;51.690;5.174;2023-02-15T15:15:03;13.40;56.10
64670;DHT22;51080;51.690;5.174;2023-02-15T15:20:48;13.20;56.10
64670;DHT22;51080;51.690;5.174;2023-02-15T15:26:32;13.00;56.90
64670;DHT22;51080;51.690;5.174;2023-02-15T15:32:22;12.80;58.10
64670;DHT22;51080;51.690;5.174;2023-02-15T15:38:29;12.70;56.40
64670;DHT22;51080;51.690;5.174;2023-02-15T15:50:31;12.40;56.30
64670;DHT22;51080;51.690;5.174;2023-02-15T15:56:26;12.20;57.20
64670;DHT22;51080;51.690;5.174;2023-02-15T16:02:15;12.00;58.10
64670;DHT22;51080;51.690;5.174;2023-02-15T16:07:59;11.90;58.50
64670;DHT22;51080;51.690;5.174;2023-02-15T16:13:44;11.70;59.30
64670;DHT22;51080;51.690;5.174;2023-02-15T16:19:35;11.50;60.10
64670;DHT22;51080;51.690;5.174;2023-02-15T16:31:40;11.00;61.40
64670;DHT22;51080;51.690;5.174;2023-02-15T16:37:31;10.90;61.30
64670;DHT22;51080;51.690;5.174;2023-02-15T16:43:21;10.70;61.50
64670;DHT22;51080;51.690;5.174;2023-02-15T16:49:36;10.50;62.00
64670;DHT22;51080;51.690;5.174;2023-02-15T17:01:22;9.90;62.70
64670;DHT22;51080;51.690;5.174;2023-02-15T17:07:18;9.70;62.80
64670;DHT22;51080;51.690;5.174;2023-02-15T17:13:14;9.40;63.30
64670;DHT22;51080;51.690;5.174;2023-02-15T17:19:08;9.10;63.80
64670;DHT22;51080;51.690;5.174;2023-02-15T17:25:00;8.80;64.20
64670;DHT22;51080;51.690;5.174;2023-02-15T17:30:47;8.60;64.30
64670;DHT22;51080;51.690;5.174;2023-02-15T17:36:31;8.40;64.50
64670;DHT22;51080;51.690;5.174;2023-02-15T17:42:45;8.30;64.60
64670;DHT22;51080;51.690;5.174;2023-02-15T17:48:34;8.00;64.70
64670;DHT22;51080;51.690;5.174;2023-02-15T17:54:19;7.90;65.10
64670;DHT22;51080;51.690;5.174;2023-02-15T18:00:43;7.80;65.20
64670;DHT22;51080;51.690;5.174;2023-02-15T18:06:28;7.60;65.30
64670;DHT22;51080;51.690;5.174;2023-02-15T18:12:33;7.50;65.60
64670;DHT22;51080;51.690;5.174;2023-02-15T18:18:48;7.30;65.80
64670;DHT22;51080;51.690;5.174;2023-02-15T18:24:33;7.10;65.90
64670;DHT22;51080;51.690;5.174;2023-02-15T18:30:20;6.90;66.30
64670;DHT22;51080;51.690;5.174;2023-02-15T18:36:07;6.90;66.60
64670;DHT22;51080;51.690;5.174;2023-02-15T18:41:56;6.70;66.80
64670;DHT22;51080;51.690;5.174;2023-02-15T18:47:41;6.70;67.00
64670;DHT22;51080;51.690;5.174;2023-02-15T18:53:26;6.60;67.10
64670;DHT22;51080;51.690;5.174;2023-02-15T18:59:41;6.50;67.10
64670;DHT22;51080;51.690;5.174;2023-02-15T19:05:27;6.40;67.20
64670;DHT22;51080;51.690;5.174;2023-02-15T19:11:21;6.30;67.40
64670;DHT22;51080;51.690;5.174;2023-02-15T19:17:20;6.30;67.60
64670;DHT22;51080;51.690;5.174;2023-02-15T19:23:30;6.30;67.70
64670;DHT22;51080;51.690;5.174;2023-02-15T19:29:19;6.20;67.80
64670;DHT22;51080;51.690;5.174;2023-02-15T19:35:04;6.20;67.80
64670;DHT22;51080;51.690;5.174;2023-02-15T19:40:48;6.20;68.30
64670;DHT22;51080;51.690;5.174;2023-02-15T19:46:33;6.20;68.40
64670;DHT22;51080;51.690;5.174;2023-02-15T19:52:19;6.30;68.70
64670;DHT22;51080;51.690;5.174;2023-02-15T19:58:10;6.30;68.50
64670;DHT22;51080;51.690;5.174;2023-02-15T20:04:25;6.30;68.80
64670;DHT22;51080;51.690;5.174;2023-02-15T20:10:21;6.30;68.30
64670;DHT22;51080;51.690;5.174;2023-02-15T20:16:05;6.20;68.60
64670;DHT22;51080;51.690;5.174;2023-02-15T20:21:49;6.10;68.90
64670;DHT22;51080;51.690;5.174;2023-02-15T20:27:33;6.00;68.70
64670;DHT22;51080;51.690;5.174;2023-02-15T20:33:17;5.80;68.90
64670;DHT22;51080;51.690;5.174;2023-02-15T20:39:11;5.80;69.40
64670;DHT22;51080;51.690;5.174;2023-02-15T20:44:54;5.70;69.50
64670;DHT22;51080;51.690;5.174;2023-02-15T20:50:38;5.70;70.20
64670;DHT22;51080;51.690;5.174;2023-02-15T20:56:23;5.80;70.00
64670;DHT22;51080;51.690;5.174;2023-02-15T21:02:37;5.80;70.10
64670;DHT22;51080;51.690;5.174;2023-02-15T21:08:24;5.80;69.70
64670;DHT22;51080;51.690;5.174;2023-02-15T21:14:16;5.80;69.90
64670;DHT22;51080;51.690;5.174;2023-02-15T21:20:00;5.80;70.70
64670;DHT22;51080;51.690;5.174;2023-02-15T21:25:45;5.70;70.70
64670;DHT22;51080;51.690;5.174;2023-02-15T21:31:30;5.80;70.90
64670;DHT22;51080;51.690;5.174;2023-02-15T21:37:29;5.70;70.70
64670;DHT22;51080;51.690;5.174;2023-02-15T21:43:28;5.60;70.80
64670;DHT22;51080;51.690;5.174;2023-02-15T21:49:29;5.60;71.00
64670;DHT22;51080;51.690;5.174;2023-02-15T21:55:21;5.60;71.50
64670;DHT22;51080;51.690;5.174;2023-02-15T22:01:24;5.60;72.00
64670;DHT22;51080;51.690;5.174;2023-02-15T22:07:15;5.50;71.60
64670;DHT22;51080;51.690;5.174;2023-02-15T22:13:01;5.60;71.80
64670;DHT22;51080;51.690;5.174;2023-02-15T22:18:47;5.50;71.80
64670;DHT22;51080;51.690;5.174;2023-02-15T22:25:02;5.40;72.00
64670;DHT22;51080;51.690;5.174;2023-02-15T22:30:46;5.40;72.00
64670;DHT22;51080;51.690;5.174;2023-02-15T22:36:30;5.50;72.10
64670;DHT22;51080;51.690;5.174;2023-02-15T22:42:46;5.40;72.40
64670;DHT22;51080;51.690;5.174;2023-02-15T22:48:32;5.50;72.20
64670;DHT22;51080;51.690;5.174;2023-02-15T22:54:17;5.40;72.50
64670;DHT22;51080;51.690;5.174;2023-02-15T23:00:04;5.40;72.90
64670;DHT22;51080;51.690;5.174;2023-02-15T23:05:50;5.30;72.60
64670;DHT22;51080;51.690;5.174;2023-02-15T23:11:35;5.20;72.90
64670;DHT22;51080;51.690;5.174;2023-02-15T23:17:20;5.30;73.40
64670;DHT22;51080;51.690;5.174;2023-02-15T23:23:09;5.30;72.90
64670;DHT22;51080;51.690;5.174;2023-02-15T23:28:56;5.20;73.10
64670;DHT22;51080;51.690;5.174;2023-02-15T23:34:41;5.20;73.50
64670;DHT22;51080;51.690;5.174;2023-02-15T23:41:00;5.20;73.50
64670;DHT22;51080;51.690;5.174;2023-02-15T23:46:48;5.30;73.50
64670;DHT22;51080;51.690;5.174;2023-02-15T23:52:32;5.40;74.30
64670;DHT22;51080;51.690;5.174;2023-02-15T23:58:22;5.50;74.40
